Time;durP1;ratioP1;P1;durP2;ratioP2;P2;SDS_P1;SDS_P2;PMS_P1;PMS_P2;Temp;Humidity;BMP_temperature;BMP_pressure;BME280_temperature;BME280_humidity;BME280_pressure;Samples;Min_cycle;Max_cycle;Signal;HPM_P1;HPM_P2
2023/01/30 00:00:21;;;;;;;15.55;9.32;;;;;;;-8.89;100.00;93506.50;2582771;23;20008;-82
2023/01/30 00:01:28;;;;;;;14.95;8.70;;;;;;;-8.89;100.00;93512.44;2545568;23;20409;-82
2023/01/30 00:02:29;;;;;;;14.35;8.90;;;;;;;-8.97;100.00;93500.13;2547092;23;20009;-81
2023/01/30 00:03:30;;;;;;;12.18;8.18;;;;;;;-8.96;100.00;93504.25;2557432;23;20404;-83
2023/01/30 00:04:31;;;;;;;14.25;8.77;;;;;;;-9.00;100.00;93498.13;2570356;23;20054;-81
2023/01/30 00:05:35;;;;;;;12.75;8.30;;;;;;;-9.04;100.00;93492.00;2571221;23;20027;-82
2023/01/30 00:06:36;;;;;;;12.57;8.38;;;;;;;-8.95;100.00;93494.69;2570306;23;20536;-81
2023/01/30 00:07:37;;;;;;;16.15;9.27;;;;;;;-8.88;100.00;93495.06;2570131;23;20410;-81
2023/01/30 00:08:38;;;;;;;14.27;8.02;;;;;;;-8.90;100.00;93482.41;2558009;23;20396;-82
2023/01/30 00:09:40;;;;;;;13.10;8.50;;;;;;;-8.92;100.00;93475.97;2572823;23;20004;-81
2023/01/30 00:10:44;;;;;;;14.07;8.25;;;;;;;-8.79;100.00;93479.66;2559253;23;20400;-81
2023/01/30 00:11:45;;;;;;;12.48;8.20;;;;;;;-8.76;100.00;93474.66;2547973;23;20415;-82
2023/01/30 00:12:46;;;;;;;13.73;8.52;;;;;;;-8.87;100.00;93475.88;2559159;23;20409;-82
2023/01/30 00:13:49;;;;;;;12.40;7.82;;;;;;;-8.87;100.00;93475.88;2557668;23;20417;-81
2023/01/30 00:14:50;;;;;;;14.45;8.48;;;;;;;-8.85;100.00;93473.78;2557995;23;20080;-81
2023/01/30 00:15:51;;;;;;;13.77;8.52;;;;;;;-8.84;100.00;93472.75;2546212;23;20728;-81
2023/01/30 00:16:52;;;;;;;12.68;8.00;;;;;;;-8.84;100.00;93459.78;2547104;23;19989;-82
2023/01/30 00:17:53;;;;;;;13.02;7.75;;;;;;;-8.99;100.00;93460.06;2558101;23;20423;-82
2023/01/30 00:18:54;;;;;;;13.98;8.25;;;;;;;-8.95;100.00;93464.38;2557894;23;20421;-81
2023/01/30 00:19:55;;;;;;;13.82;8.50;;;;;;;-8.89;100.00;93455.47;2558293;23;20404;-81
2023/01/30 00:20:56;;;;;;;12.98;9.30;;;;;;;-8.92;100.00;93450.09;2570145;23;20031;-81
2023/01/30 00:21:57;;;;;;;13.55;8.48;;;;;;;-8.92;100.00;93455.25;2570688;23;20404;-81
2023/01/30 00:22:58;;;;;;;11.65;8.27;;;;;;;-9.03;100.00;93451.31;2545748;23;20405;-81
2023/01/30 00:23:59;;;;;;;13.85;8.48;;;;;;;-9.03;100.00;93448.75;2545641;23;20009;-81
2023/01/30 00:25:00;;;;;;;13.52;8.27;;;;;;;-8.65;100.00;93462.28;2558102;23;20981;-84
2023/01/30 00:26:02;;;;;;;12.55;7.95;;;;;;;-8.53;100.00;93454.06;2571556;23;20430;-82
2023/01/30 00:27:03;;;;;;;12.05;8.35;;;;;;;-8.56;100.00;93452.78;2572690;23;20407;-82
2023/01/30 00:28:04;;;;;;;11.82;7.97;;;;;;;-8.65;100.00;93455.31;2546204;23;20937;-82
2023/01/30 00:29:05;;;;;;;13.25;8.13;;;;;;;-8.71;100.00;93450.50;2551901;23;20331;-82
2023/01/30 00:30:07;;;;;;;13.27;8.32;;;;;;;-8.91;100.00;93452.41;2570556;23;20012;-81
2023/01/30 00:31:08;;;;;;;13.15;7.78;;;;;;;-9.01;100.00;93447.38;2560383;23;20447;-81
2023/01/30 00:32:09;;;;;;;11.82;7.45;;;;;;;-9.10;100.00;93443.91;2535038;23;20417;-81
2023/01/30 00:33:10;;;;;;;14.55;8.10;;;;;;;-9.20;100.00;93450.03;2546138;23;20421;-81
2023/01/30 00:34:11;;;;;;;12.57;8.07;;;;;;;-9.16;100.00;93452.84;2545091;23;20302;-83
2023/01/30 00:35:12;;;;;;;12.82;8.25;;;;;;;-9.29;100.00;93454.34;2533485;23;20013;-82
2023/01/30 00:36:13;;;;;;;14.32;8.13;;;;;;;-9.21;100.00;93445.91;2545125;23;20410;-82
2023/01/30 00:37:14;;;;;;;12.10;7.55;;;;;;;-9.28;100.00;93453.28;2545312;23;20073;-83
2023/01/30 00:38:16;;;;;;;15.10;8.70;;;;;;;-9.28;100.00;93461.03;2533152;23;20091;-83
2023/01/30 00:39:17;;;;;;;12.60;8.55;;;;;;;-9.20;100.00;93457.81;2545758;23;20132;-82
2023/01/30 00:40:17;;;;;;;12.05;7.85;;;;;;;-8.95;100.00;93458.44;2557321;23;20401;-82
2023/01/30 00:41:18;;;;;;;14.43;8.73;;;;;;;-8.61;100.00;93455.47;2557365;23;20008;-83
2023/01/30 00:47:50;;;;;;;11.43;7.28;;;;;;;-8.99;100.00;93424.56;2570130;23;20443;-81
2023/01/30 00:48:51;;;;;;;12.18;7.47;;;;;;;-9.00;100.00;93417.06;2557924;23;20424;-83
2023/01/30 00:49:52;;;;;;;12.25;7.32;;;;;;;-9.00;100.00;93411.91;2557484;23;20380;-83
2023/01/30 00:50:53;;;;;;;13.25;8.15;;;;;;;-8.86;100.00;93417.13;2557750;23;20404;-81
2023/01/30 00:51:54;;;;;;;12.48;7.70;;;;;;;-8.85;100.00;93416.81;2545261;23;20044;-81
2023/01/30 00:52:55;;;;;;;13.80;8.23;;;;;;;-8.84;100.00;93417.59;2570446;23;20506;-82
2023/01/30 00:53:56;;;;;;;13.30;7.85;;;;;;;-8.92;100.00;93416.41;2557698;23;20420;-80
2023/01/30 00:54:57;;;;;;;14.93;8.20;;;;;;;-8.90;100.00;93415.09;2533332;23;20009;-80
2023/01/30 00:55:58;;;;;;;14.07;8.18;;;;;;;-8.80;100.00;93414.13;2557860;23;20032;-81
2023/01/30 00:57:00;;;;;;;12.65;8.32;;;;;;;-8.96;100.00;93403.28;2558062;23;20032;-82
2023/01/30 00:58:01;;;;;;;13.10;8.10;;;;;;;-9.02;100.00;93406.25;2533713;23;20461;-81
2023/01/30 00:59:02;;;;;;;13.93;8.02;;;;;;;-9.05;100.00;93399.81;2532679;23;20429;-81
2023/01/30 01:00:04;;;;;;;13.38;8.43;;;;;;;-9.00;100.00;93401.53;2545198;23;20492;-83
2023/01/30 01:01:05;;;;;;;13.55;8.35;;;;;;;-9.02;100.00;93396.66;2557611;23;20845;-81
2023/01/30 01:02:06;;;;;;;13.25;7.85;;;;;;;-8.73;100.00;93393.03;2557261;23;20408;-81
2023/01/30 01:03:07;;;;;;;14.05;8.45;;;;;;;-8.94;100.00;93392.66;2545600;23;20002;-81
2023/01/30 01:04:09;;;;;;;14.10;8.73;;;;;;;-8.92;100.00;93395.69;2557363;23;20005;-82
2023/01/30 01:05:10;;;;;;;11.57;7.82;;;;;;;-8.73;100.00;93395.63;2558040;23;20013;-83
2023/01/30 01:06:11;;;;;;;12.02;8.10;;;;;;;-8.69;100.00;93401.75;2545678;23;20408;-81
2023/01/30 01:07:13;;;;;;;13.70;8.20;;;;;;;-8.79;100.00;93410.47;2532906;23;20013;-81
2023/01/30 01:08:14;;;;;;;11.90;8.00;;;;;;;-8.83;100.00;93409.50;2546338;23;20044;-81
2023/01/30 01:09:15;;;;;;;14.43;8.52;;;;;;;-8.78;100.00;93409.44;2545885;23;20397;-82
2023/01/30 01:10:16;;;;;;;15.43;8.52;;;;;;;-8.79;100.00;93401.94;2545573;23;20397;-83
2023/01/30 01:11:23;;;;;;;15.20;7.95;;;;;;;-8.87;100.00;93393.00;2546041;23;20377;-82
2023/01/30 01:12:24;;;;;;;14.10;8.18;;;;;;;-8.89;100.00;93389.97;2558371;23;20411;-82
2023/01/30 01:13:24;;;;;;;16.10;8.60;;;;;;;-8.81;100.00;93391.13;2546124;23;20432;-83
2023/01/30 01:14:26;;;;;;;13.98;8.23;;;;;;;-8.78;100.00;93393.91;2558390;23;20024;-83
2023/01/30 01:15:32;;;;;;;12.85;8.20;;;;;;;-8.84;100.00;93386.50;2557986;23;20007;-82
2023/01/30 01:16:34;;;;;;;14.68;9.15;;;;;;;-8.85;100.00;93383.16;2535682;23;20402;-81
2023/01/30 01:17:35;;;;;;;12.25;8.25;;;;;;;-8.92;100.00;93391.28;2546044;23;20934;-82
2023/01/30 01:18:35;;;;;;;14.80;8.50;;;;;;;-8.99;100.00;93387.56;2533876;23;20405;-81
2023/01/30 01:19:36;;;;;;;11.00;7.50;;;;;;;-8.99;100.00;93385.75;2558502;23;20435;-83
2023/01/30 01:20:37;;;;;;;12.90;7.88;;;;;;;-9.08;100.00;93391.88;2571166;23;20015;-83
2023/01/30 01:21:38;;;;;;;14.10;8.43;;;;;;;-8.97;100.00;93390.63;2545522;23;20001;-82
2023/01/30 01:22:39;;;;;;;14.23;8.25;;;;;;;-9.04;100.00;93391.00;2558542;23;20001;-81
2023/01/30 01:23:40;;;;;;;11.52;7.65;;;;;;;-9.13;100.00;93393.50;2570596;23;20023;-83
2023/01/30 01:24:41;;;;;;;13.02;7.90;;;;;;;-9.07;100.00;93393.41;2545619;23;20412;-80
2023/01/30 01:25:42;;;;;;;13.90;8.30;;;;;;;-9.11;100.00;93400.22;2545650;23;20009;-82
2023/01/30 01:26:44;;;;;;;15.90;8.45;;;;;;;-8.99;100.00;93400.50;2558755;23;20000;-82
2023/01/30 01:27:46;;;;;;;14.50;7.93;;;;;;;-8.96;100.00;93408.44;2558207;23;20467;-81
2023/01/30 01:28:47;;;;;;;13.43;8.38;;;;;;;-9.08;100.00;93404.81;2537998;23;20746;-81
2023/01/30 01:29:48;;;;;;;14.77;8.77;;;;;;;-9.06;100.00;93403.47;2558240;23;20415;-80
2023/01/30 01:30:49;;;;;;;14.93;8.68;;;;;;;-9.15;100.00;93407.78;2558370;23;20416;-81
2023/01/30 01:31:50;;;;;;;12.15;7.70;;;;;;;-9.07;100.00;93414.88;2546137;23;20012;-82
2023/01/30 01:32:50;;;;;;;16.60;7.82;;;;;;;-9.04;100.00;93416.13;2558456;23;20423;-82
2023/01/30 01:33:51;;;;;;;15.43;8.93;;;;;;;-9.18;100.00;93416.09;2557891;23;20443;-81
2023/01/30 01:34:52;;;;;;;13.00;8.23;;;;;;;-9.16;100.00;93430.31;2546018;23;20096;-83
2023/01/30 01:35:56;;;;;;;14.63;8.63;;;;;;;-9.11;100.00;93420.91;2558195;23;20001;-81
2023/01/30 01:36:57;;;;;;;14.48;8.55;;;;;;;-9.13;100.00;93427.16;2559122;23;20005;-82
2023/01/30 01:37:58;;;;;;;11.32;8.25;;;;;;;-8.99;100.00;93421.22;2546212;23;20461;-81
2023/01/30 01:39:00;;;;;;;16.13;8.52;;;;;;;-8.99;100.00;93423.81;2558146;23;20012;-82
2023/01/30 01:41:21;;;;;;;11.98;7.53;;;;;;;-8.86;100.00;93425.66;2574856;23;20411;-83
2023/01/30 01:42:25;;;;;;;13.85;8.20;;;;;;;-8.97;100.00;93429.47;2558838;23;20096;-82
2023/01/30 01:43:28;;;;;;;13.52;8.02;;;;;;;-8.95;100.00;93437.72;2548114;23;20464;-81
2023/01/30 01:44:58;;;;;;;16.13;9.32;;;;;;;-8.82;100.00;93444.75;2559349;23;20870;-82
2023/01/30 01:46:17;;;;;;;15.70;7.75;;;;;;;-8.84;100.00;93441.66;2564551;23;20921;-83
2023/01/30 01:47:18;;;;;;;10.95;7.53;;;;;;;-8.82;100.00;93447.34;2553725;23;20016;-81
2023/01/30 01:48:33;;;;;;;15.07;8.38;;;;;;;-8.98;100.00;93440.88;2558922;23;20397;-82
2023/01/30 01:49:36;;;;;;;12.40;7.95;;;;;;;-8.93;100.00;93451.91;2574084;23;20948;-80
2023/01/30 01:50:55;;;;;;;14.43;8.38;;;;;;;-8.75;100.00;93444.34;2571325;23;20400;-80
2023/01/30 01:52:08;;;;;;;14.68;7.82;;;;;;;-8.91;100.00;93460.19;2562710;23;20416;-81
2023/01/30 01:53:11;;;;;;;12.13;7.47;;;;;;;-8.90;100.00;93466.13;2551383;23;20531;-81
2023/01/30 01:54:19;;;;;;;15.88;9.02;;;;;;;-8.86;100.00;93468.91;2562414;23;20408;-80
2023/01/30 01:55:22;;;;;;;13.23;7.70;;;;;;;-8.91;100.00;93467.16;2575781;23;20424;-81
2023/01/30 01:56:24;;;;;;;13.15;7.60;;;;;;;-8.87;100.00;93462.94;2575138;23;20408;-80
2023/01/30 01:57:37;;;;;;;12.85;7.18;;;;;;;-8.96;100.00;93462.06;2572439;23;20407;-81
2023/01/30 01:58:46;;;;;;;13.63;8.07;;;;;;;-8.93;100.00;93474.44;2574547;23;20461;-82
2023/01/30 02:00:11;;;;;;;13.43;7.70;;;;;;;-8.98;100.00;93471.94;2573583;23;20391;-82
2023/01/30 02:01:13;;;;;;;12.20;7.68;;;;;;;-8.91;100.00;93470.53;2576513;23;20457;-81
2023/01/30 02:02:14;;;;;;;15.82;8.18;;;;;;;-9.10;100.00;93476.81;2559048;23;20413;-81
2023/01/30 02:03:22;;;;;;;15.73;7.75;;;;;;;-8.99;100.00;93476.38;2547158;23;20444;-80
2023/01/30 02:05:49;;;;;;;13.23;7.75;;;;;;;-9.17;100.00;93479.78;2567509;23;20965;-80
2023/01/30 02:06:50;;;;;;;11.90;8.02;;;;;;;-9.12;100.00;93490.03;2572804;23;20465;-81
2023/01/30 02:07:59;;;;;;;12.90;7.65;;;;;;;-9.18;100.00;93493.75;2571696;23;20404;-80
2023/01/30 02:09:09;;;;;;;15.77;8.07;;;;;;;-9.24;100.00;93497.47;2562342;23;19997;-80
2023/01/30 02:10:15;;;;;;;13.13;8.07;;;;;;;-9.32;100.00;93496.28;2559789;23;20412;-82
2023/01/30 02:11:40;;;;;;;15.55;8.20;;;;;;;-9.38;100.00;93500.78;2548824;23;20122;-81
2023/01/30 02:12:42;;;;;;;13.32;7.38;;;;;;;-9.29;100.00;93490.56;2568680;23;20383;-82
2023/01/30 02:13:45;;;;;;;13.60;7.78;;;;;;;-9.26;100.00;93486.63;2570336;23;20408;-83
2023/01/30 02:14:49;;;;;;;13.80;7.90;;;;;;;-9.24;100.00;93481.94;2558961;23;20788;-80
2023/01/30 02:15:50;;;;;;;12.43;7.40;;;;;;;-8.93;100.00;93477.03;2572355;23;20388;-80
2023/01/30 02:18:39;;;;;;;10.23;6.90;;;;;;;-9.15;100.00;93485.44;2148670;27;20164;-80
2023/01/30 02:19:50;;;;;;;12.15;7.20;;;;;;;-8.99;100.00;93476.38;2126149;27;20102;-81
2023/01/30 02:21:00;;;;;;;11.50;7.22;;;;;;;-9.10;100.00;93480.16;2112921;28;20470;-80
2023/01/30 02:22:21;;;;;;;12.32;6.38;;;;;;;-9.11;100.00;93477.88;2107235;28;20462;-81
2023/01/30 02:23:59;;;;;;;14.40;6.97;;;;;;;-8.99;100.00;93467.84;2126038;27;20027;-80
2023/01/30 02:25:28;;;;;;;11.77;6.65;;;;;;;-9.05;100.00;93463.78;2127009;27;20493;-81
2023/01/30 02:27:06;;;;;;;14.20;7.15;;;;;;;-8.96;100.00;93462.06;2136681;27;20439;-80
2023/01/30 02:28:42;;;;;;;13.35;6.97;;;;;;;-8.83;100.00;93460.56;2128522;27;20789;-80
2023/01/30 02:29:53;;;;;;;9.93;6.70;;;;;;;-8.80;100.00;93442.63;2094930;28;20454;-81
2023/01/30 02:31:18;;;;;;;11.68;7.07;;;;;;;-8.69;100.00;93440.59;2116901;27;20537;-79
2023/01/30 02:32:42;;;;;;;12.07;7.03;;;;;;;-8.61;100.00;93447.72;2114103;28;20457;-79
2023/01/30 02:34:21;;;;;;;9.65;6.50;;;;;;;-8.75;100.00;93467.66;2112697;27;20503;-80
2023/01/30 02:35:39;;;;;;;13.15;6.13;;;;;;;-8.58;100.00;93472.28;2114336;28;20453;-81
2023/01/30 02:37:14;;;;;;;12.57;6.95;;;;;;;-8.61;100.00;93465.84;2109727;28;20469;-81
2023/01/30 02:38:43;;;;;;;11.55;6.68;;;;;;;-8.49;100.00;93463.56;2114896;28;20462;-80
2023/01/30 02:40:15;;;;;;;9.20;6.30;;;;;;;-8.53;100.00;93467.00;2115080;28;20457;-80
2023/01/30 02:41:43;;;;;;;10.90;6.32;;;;;;;-8.65;100.00;93472.66;2105693;28;20126;-82
2023/01/30 02:42:53;;;;;;;13.80;7.32;;;;;;;-8.76;100.00;93468.72;2110889;28;20444;-80
2023/01/30 02:44:06;;;;;;;10.35;6.45;;;;;;;-8.71;100.00;93466.03;2116066;27;20451;-81
2023/01/30 02:45:49;;;;;;;11.55;6.95;;;;;;;-8.66;100.00;93469.31;2132396;27;20031;-81
2023/01/30 02:47:02;;;;;;;12.95;7.32;;;;;;;-8.73;100.00;93461.16;2125137;27;20561;-82
2023/01/30 02:48:05;;;;;;;12.45;6.97;;;;;;;-8.75;100.00;93460.66;2120052;27;20445;-80
2023/01/30 02:49:22;;;;;;;12.35;7.53;;;;;;;-8.76;100.00;93455.78;2114678;28;20461;-80
2023/01/30 02:50:37;;;;;;;13.60;7.13;;;;;;;-8.98;100.00;93449.41;2106874;28;20451;-80
2023/01/30 02:51:41;;;;;;;12.57;6.68;;;;;;;-8.92;100.00;93450.84;2099083;28;20447;-81
2023/01/30 02:52:42;;;;;;;10.75;6.95;;;;;;;-8.80;100.00;93454.81;2099865;28;20470;-81
2023/01/30 02:53:46;;;;;;;14.38;7.90;;;;;;;-8.81;100.00;93448.09;2105112;28;20839;-81
2023/01/30 02:54:47;;;;;;;13.05;6.38;;;;;;;-8.66;100.00;93451.16;2113370;28;20457;-81
2023/01/30 02:55:48;;;;;;;10.65;6.70;;;;;;;-8.73;100.00;93461.16;2103588;28;20866;-81
2023/01/30 02:56:55;;;;;;;11.55;6.68;;;;;;;-8.70;100.00;93465.75;2105036;27;20055;-81
2023/01/30 02:57:56;;;;;;;12.07;7.68;;;;;;;-8.59;100.00;93458.56;2115166;28;20484;-79
2023/01/30 02:59:04;;;;;;;12.40;6.85;;;;;;;-8.63;100.00;93455.00;2104718;28;20469;-80
2023/01/30 03:00:06;;;;;;;12.38;7.65;;;;;;;-8.70;100.00;93455.38;2106584;28;20114;-82
2023/01/30 03:01:32;;;;;;;12.27;6.80;;;;;;;-8.77;100.00;93455.00;2110140;28;20484;-81
2023/01/30 03:02:51;;;;;;;12.23;6.82;;;;;;;-8.70;100.00;93460.56;2106240;28;20489;-81
2023/01/30 03:04:10;;;;;;;11.25;7.03;;;;;;;-8.65;100.00;93459.69;2121126;28;20488;-81
2023/01/30 03:05:29;;;;;;;11.15;7.13;;;;;;;-8.72;100.00;93446.38;2108526;28;20446;-81
2023/01/30 03:06:33;;;;;;;12.13;7.07;;;;;;;-8.48;100.00;93446.94;2108319;28;21127;-81
2023/01/30 03:08:07;;;;;;;11.63;6.97;;;;;;;-8.46;100.00;93457.81;2116770;28;20790;-80
2023/01/30 03:09:23;;;;;;;9.90;6.18;;;;;;;-8.52;100.00;93453.00;2109546;28;21012;-80
2023/01/30 03:10:41;;;;;;;9.48;6.18;;;;;;;-8.63;100.00;93449.84;2108398;28;20538;-81
2023/01/30 03:12:10;;;;;;;13.27;7.57;;;;;;;-8.45;100.00;93450.78;2121825;27;20551;-80
2023/01/30 03:13:11;;;;;;;10.52;6.80;;;;;;;-8.53;100.00;93447.03;2111910;28;20485;-80
2023/01/30 03:14:39;;;;;;;13.20;7.20;;;;;;;-8.50;100.00;93443.88;2098230;28;20477;-81
2023/01/30 03:15:51;;;;;;;9.85;6.50;;;;;;;-8.54;100.00;93431.78;2110487;28;20074;-80
2023/01/30 03:16:55;;;;;;;11.20;6.38;;;;;;;-8.60;100.00;93425.16;2111302;28;20529;-80
2023/01/30 03:17:57;;;;;;;11.38;6.63;;;;;;;-8.59;100.00;93426.72;2115630;28;21066;-79
2023/01/30 03:18:59;;;;;;;14.88;7.07;;;;;;;-8.50;100.00;93430.16;2098105;28;20585;-80
2023/01/30 03:20:00;;;;;;;11.60;6.95;;;;;;;-8.56;100.00;93432.06;2105192;28;20575;-79
2023/01/30 03:21:05;;;;;;;11.52;7.13;;;;;;;-8.59;100.00;93432.66;2107678;28;21115;-81
2023/01/30 03:22:06;;;;;;;12.32;7.03;;;;;;;-8.61;100.00;93442.53;2104320;28;20505;-81
2023/01/30 03:23:08;;;;;;;17.77;9.05;;;;;;;-8.58;100.00;93449.72;2105798;28;20450;-80
2023/01/30 03:24:09;;;;;;;14.13;8.57;;;;;;;-8.45;100.00;93443.78;2105333;28;20950;-82
2023/01/30 03:25:16;;;;;;;15.95;8.80;;;;;;;-8.66;100.00;93453.00;2103706;28;20844;-79
2023/01/30 03:26:21;;;;;;;19.65;9.93;;;;;;;-8.81;100.00;93454.03;2096255;28;20451;-79
2023/01/30 03:27:22;;;;;;;22.13;10.07;;;;;;;-8.74;100.00;93454.41;2105191;28;20473;-79
2023/01/30 03:28:24;;;;;;;19.55;9.00;;;;;;;-8.75;100.00;93445.13;2112196;28;21101;-81
2023/01/30 03:29:25;;;;;;;13.75;7.50;;;;;;;-8.63;100.00;93442.06;2102873;28;20445;-81
2023/01/30 03:30:26;;;;;;;12.48;7.15;;;;;;;-8.16;100.00;93453.81;2091627;28;20498;-80
2023/01/30 03:31:27;;;;;;;12.75;7.15;;;;;;;-8.25;100.00;93455.56;2098998;28;20044;-80
2023/01/30 03:32:28;;;;;;;12.35;7.13;;;;;;;-8.51;100.00;93449.38;2099163;28;20451;-81
2023/01/30 03:33:29;;;;;;;12.35;7.28;;;;;;;-8.72;100.00;93439.38;2090915;28;20051;-81
2023/01/30 03:34:30;;;;;;;12.38;7.45;;;;;;;-8.80;100.00;93434.84;2099238;28;20024;-80
2023/01/30 03:35:31;;;;;;;13.02;7.55;;;;;;;-8.80;100.00;93436.69;2098100;28;20052;-79
2023/01/30 03:36:32;;;;;;;12.40;7.10;;;;;;;-8.83;100.00;93437.25;2088041;28;20590;-81
2023/01/30 03:37:34;;;;;;;13.55;7.22;;;;;;;-8.82;100.00;93434.38;2086782;28;20447;-81
2023/01/30 03:38:35;;;;;;;11.65;7.05;;;;;;;-8.87;100.00;93437.03;2097402;28;20983;-80
2023/01/30 03:39:36;;;;;;;14.10;7.88;;;;;;;-8.82;100.00;93433.59;2107721;28;20426;-81
2023/01/30 03:40:38;;;;;;;13.57;7.80;;;;;;;-8.86;100.00;93424.88;2102978;28;21080;-80
2023/01/30 03:41:39;;;;;;;12.13;7.82;;;;;;;-8.97;100.00;93421.69;2091657;28;20021;-80
2023/01/30 03:42:40;;;;;;;13.02;6.85;;;;;;;-9.00;100.00;93430.03;2095113;28;21010;-80
2023/01/30 03:43:41;;;;;;;12.93;6.97;;;;;;;-8.92;100.00;93437.91;2099234;28;21017;-82
2023/01/30 03:44:42;;;;;;;12.75;7.65;;;;;;;-8.87;100.00;93429.28;2108675;28;20946;-81
2023/01/30 03:45:43;;;;;;;14.13;7.80;;;;;;;-8.85;100.00;93440.13;2104745;28;20484;-79
2023/01/30 03:46:44;;;;;;;11.93;7.55;;;;;;;-8.86;100.00;93440.44;2091862;28;20812;-81
2023/01/30 03:47:45;;;;;;;17.45;9.57;;;;;;;-8.87;100.00;93444.81;2091970;28;20048;-81
2023/01/30 03:48:49;;;;;;;21.17;10.07;;;;;;;-8.82;100.00;93446.53;2091750;28;20047;-79
2023/01/30 03:49:49;;;;;;;24.33;11.20;;;;;;;-8.82;100.00;93441.38;2100498;28;20481;-79
2023/01/30 03:50:50;;;;;;;20.45;9.32;;;;;;;-8.92;100.00;93437.91;2101582;28;20450;-80
2023/01/30 03:51:51;;;;;;;21.58;9.73;;;;;;;-8.83;100.00;93434.66;2111648;28;20126;-80
2023/01/30 03:52:53;;;;;;;19.55;9.75;;;;;;;-8.88;100.00;93433.69;2106490;28;20073;-79
2023/01/30 03:53:54;;;;;;;17.55;8.95;;;;;;;-8.89;100.00;93428.81;2101997;28;20063;-80
2023/01/30 03:54:55;;;;;;;16.48;8.23;;;;;;;-8.85;100.00;93427.19;2106740;28;20820;-81
2023/01/30 03:55:56;;;;;;;15.80;8.75;;;;;;;-8.80;100.00;93424.50;2098277;28;20455;-80
2023/01/30 03:56:57;;;;;;;13.77;8.57;;;;;;;-8.90;100.00;93420.28;2090507;28;20053;-80
2023/01/30 03:57:59;;;;;;;15.13;8.35;;;;;;;-8.90;100.00;93433.22;2086836;28;20468;-80
2023/01/30 03:59:00;;;;;;;18.00;8.77;;;;;;;-8.94;100.00;93432.25;2097650;28;20447;-80
2023/01/30 04:00:01;;;;;;;14.20;8.15;;;;;;;-8.96;100.00;93431.00;2095061;28;20508;-80
2023/01/30 04:01:02;;;;;;;16.50;8.30;;;;;;;-8.98;100.00;93418.34;2104034;28;20119;-79
2023/01/30 04:02:03;;;;;;;14.85;8.57;;;;;;;-9.09;100.00;93409.22;2107752;28;20499;-80
2023/01/30 04:03:04;;;;;;;16.05;8.93;;;;;;;-9.07;100.00;93409.69;2100267;28;20842;-80
2023/01/30 04:04:05;;;;;;;17.73;8.52;;;;;;;-8.93;100.00;93410.47;2096124;28;20153;-79
2023/01/30 04:05:06;;;;;;;12.57;8.05;;;;;;;-8.91;100.00;93392.06;2098102;28;20382;-80
2023/01/30 04:06:07;;;;;;;12.35;7.30;;;;;;;-8.90;100.00;93394.38;2089321;28;20029;-80
2023/01/30 04:07:08;;;;;;;11.50;7.65;;;;;;;-9.01;100.00;93395.59;2093935;28;21090;-80
2023/01/30 04:08:09;;;;;;;17.23;7.82;;;;;;;-9.03;100.00;93397.72;2091886;28;20489;-80
2023/01/30 04:09:10;;;;;;;13.32;7.68;;;;;;;-9.09;100.00;93396.25;2099344;28;20154;-80
2023/01/30 04:10:14;;;;;;;12.52;8.02;;;;;;;-9.16;100.00;93391.47;2099835;28;20443;-80
2023/01/30 04:11:15;;;;;;;10.93;7.13;;;;;;;-9.22;100.00;93397.00;2100749;28;20043;-80
2023/01/30 04:12:16;;;;;;;12.10;7.82;;;;;;;-9.21;100.00;93394.16;2108346;28;20445;-81
2023/01/30 04:13:16;;;;;;;12.85;7.07;;;;;;;-9.21;100.00;93399.34;2100409;28;20020;-80
2023/01/30 04:14:18;;;;;;;10.57;6.60;;;;;;;-8.96;100.00;93399.91;2106184;28;20097;-80
2023/01/30 04:15:19;;;;;;;13.02;7.95;;;;;;;-8.89;100.00;93397.72;2107909;28;20024;-80
2023/01/30 04:16:22;;;;;;;13.68;7.82;;;;;;;-9.09;100.00;93393.66;2097047;28;20439;-79
2023/01/30 04:17:25;;;;;;;15.52;8.52;;;;;;;-9.11;100.00;93392.44;2092587;28;20970;-82
2023/01/30 04:18:26;;;;;;;13.32;7.78;;;;;;;-9.08;100.00;93389.28;2091868;28;20888;-81
2023/01/30 04:19:27;;;;;;;13.93;7.75;;;;;;;-9.19;100.00;93388.69;2091903;28;20431;-80
2023/01/30 04:20:28;;;;;;;14.95;8.00;;;;;;;-9.08;100.00;93386.69;2091774;28;20052;-80
2023/01/30 04:21:29;;;;;;;11.02;6.85;;;;;;;-9.05;100.00;93389.47;2091557;28;20021;-81
2023/01/30 04:22:30;;;;;;;14.23;8.13;;;;;;;-8.98;100.00;93387.28;2097880;28;20017;-79
2023/01/30 04:23:31;;;;;;;13.00;7.78;;;;;;;-8.88;100.00;93392.25;2099691;28;20027;-79
2023/01/30 04:24:32;;;;;;;12.27;7.40;;;;;;;-8.75;100.00;93388.13;2100614;28;20442;-80
2023/01/30 04:25:36;;;;;;;14.68;6.97;;;;;;;-8.81;100.00;93383.34;2102488;28;20385;-81
2023/01/30 04:26:37;;;;;;;13.38;7.75;;;;;;;-8.84;100.00;93383.91;2107396;28;20023;-81
2023/01/30 04:27:38;;;;;;;11.70;7.18;;;;;;;-8.89;100.00;93397.72;2102485;28;20458;-81
2023/01/30 04:28:39;;;;;;;14.63;7.72;;;;;;;-8.69;100.00;93402.53;2094067;28;20510;-81
2023/01/30 04:29:41;;;;;;;13.75;8.02;;;;;;;-8.68;100.00;93417.03;2106873;28;20446;-80
2023/01/30 04:30:42;;;;;;;12.60;7.22;;;;;;;-8.45;100.00;93412.69;2103922;28;21056;-79
2023/01/30 04:31:43;;;;;;;15.85;8.50;;;;;;;-8.62;100.00;93415.84;2095557;28;20427;-80
2023/01/30 04:32:44;;;;;;;15.15;7.80;;;;;;;-8.58;100.00;93417.88;2094308;28;20165;-80
2023/01/30 04:33:45;;;;;;;11.77;7.72;;;;;;;-8.63;100.00;93421.34;2099503;28;20111;-81
2023/01/30 04:34:46;;;;;;;15.50;8.60;;;;;;;-8.64;100.00;93425.75;2092821;28;20033;-79
2023/01/30 04:35:57;;;;;;;12.50;7.72;;;;;;;-8.67;100.00;93415.19;2108184;28;20069;-80
2023/01/30 04:36:59;;;;;;;15.43;7.80;;;;;;;-8.68;100.00;93411.84;2107714;28;20070;-80
2023/01/30 04:38:00;;;;;;;14.35;8.05;;;;;;;-8.57;100.00;93417.56;2092106;28;20479;-80
2023/01/30 04:39:02;;;;;;;15.23;7.90;;;;;;;-8.57;100.00;93427.19;2099354;28;20478;-80
2023/01/30 04:40:04;;;;;;;12.30;7.43;;;;;;;-8.54;100.00;93429.97;2098744;28;20029;-80
2023/01/30 04:41:05;;;;;;;13.68;7.97;;;;;;;-8.47;100.00;93424.38;2090396;28;20447;-81
2023/01/30 04:42:05;;;;;;;12.10;7.28;;;;;;;-8.38;100.00;93433.81;2098635;28;20463;-79
2023/01/30 04:43:06;;;;;;;15.40;8.57;;;;;;;-8.31;100.00;93437.78;2097073;28;20136;-82
2023/01/30 04:44:07;;;;;;;12.20;7.85;;;;;;;-8.35;100.00;93442.78;2099513;28;20099;-81
2023/01/30 04:45:09;;;;;;;13.20;7.80;;;;;;;-8.26;100.00;93441.03;2090533;28;20480;-80
2023/01/30 04:46:10;;;;;;;11.45;6.97;;;;;;;-8.23;100.00;93434.53;2101480;28;20450;-81
2023/01/30 04:47:11;;;;;;;15.13;8.27;;;;;;;-8.18;100.00;93448.13;2094357;28;20907;-81
2023/01/30 04:48:12;;;;;;;11.85;7.47;;;;;;;-8.22;100.00;93449.78;2098574;28;20036;-81
2023/01/30 04:49:13;;;;;;;12.63;7.78;;;;;;;-8.17;100.00;93436.72;2094246;28;20025;-81
2023/01/30 04:50:14;;;;;;;13.43;8.00;;;;;;;-8.27;100.00;93438.75;2099565;28;20807;-79
2023/01/30 04:51:15;;;;;;;11.80;7.35;;;;;;;-8.13;100.00;93439.50;2100000;28;20036;-80
2023/01/30 04:52:16;;;;;;;13.43;7.45;;;;;;;-8.03;100.00;93447.09;2087881;28;20467;-80
2023/01/30 04:53:19;;;;;;;14.00;7.82;;;;;;;-8.12;100.00;93447.00;2109631;28;21009;-80
2023/01/30 04:54:20;;;;;;;13.50;8.38;;;;;;;-8.14;100.00;93443.91;2107329;28;20162;-80
2023/01/30 04:55:21;;;;;;;13.80;7.60;;;;;;;-8.12;100.00;93454.78;2088797;28;20452;-81
2023/01/30 04:56:22;;;;;;;15.40;8.32;;;;;;;-8.16;100.00;93456.41;2092980;28;20451;-80
2023/01/30 04:57:23;;;;;;;10.77;7.13;;;;;;;-7.99;100.00;93452.44;2094505;28;20075;-79
2023/01/30 04:58:24;;;;;;;13.52;8.30;;;;;;;-8.03;100.00;93451.47;2098796;28;20039;-80
2023/01/30 04:59:25;;;;;;;12.95;7.85;;;;;;;-8.09;100.00;93450.06;2104093;28;20094;-82
2023/01/30 05:00:27;;;;;;;10.80;6.90;;;;;;;-8.13;100.00;93450.63;2112106;27;20457;-83
2023/01/30 05:01:34;;;;;;;14.00;7.97;;;;;;;-8.20;100.00;93447.69;2103016;28;20539;-83
2023/01/30 05:02:35;;;;;;;17.80;8.00;;;;;;;-8.15;100.00;93437.19;2090887;28;20868;-83
2023/01/30 05:03:35;;;;;;;15.98;7.97;;;;;;;-8.10;100.00;93436.31;2092444;28;20454;-83
2023/01/30 05:04:36;;;;;;;18.08;7.85;;;;;;;-8.12;100.00;93441.81;2093338;28;20068;-84
2023/01/30 05:05:37;;;;;;;14.32;8.07;;;;;;;-8.09;100.00;93434.50;2097964;28;20476;-82
2023/01/30 05:06:38;;;;;;;15.38;8.35;;;;;;;-8.04;100.00;93435.16;2093962;28;20028;-81
2023/01/30 05:07:39;;;;;;;11.85;7.43;;;;;;;-8.02;100.00;93437.47;2105270;28;20812;-81